AirNav  
 
 1269 users online  

3MA1 Marlborough Hospital Heliport
Marlborough, Massachusetts, USA

GOING TO MARLBOROUGH?


FAA INFORMATION EFFECTIVE 25 MARCH 2021

Location

FAA Identifier: 3MA1
Lat/Long: 42-21-22.9400N 071-33-19.3300W
42-21.382333N 071-33.322167W
42.3563722,-71.5553694
(estimated)
Elevation: 520 ft. / 158 m (estimated)
Variation: 15W (1985)
From city: 1 mile N of MARLBOROUGH, MA
Time zone: UTC -4 (UTC -5 during Standard Time)
Zip code: 01752

Heliport Operations

Heliport use: Private use, MEDICAL USE.
Activation date: 01/1987
Control tower: no
ARTCC: BOSTON CENTER
FSS: BRIDGEPORT FLIGHT SERVICE STATION
Attendance: UNATNDD
Wind indicator: no
Segmented circle: no

Heliport Communications

WX ASOS at BED (14 nm NE): 124.6 (781-274-9733)
WX ASOS at FIT (15 nm NW): 135.175 (978-343-9121)
WX ASOS at ORH (15 nm W): PHONE 508-795-7546
WX ASOS at OWD (20 nm SE): 119.95 (781-762-4314)

Nearby radio navigation aids

VOR radial/distance  VOR name  Freq  Var
GDMr131/25.0GARDNER VOR/DME110.6014W
BOSr286/25.1BOSTON VOR/DME112.7016W
PUTr042/27.3PUTNAM VOR/DME117.4014W
LWMr236/30.7LAWRENCE VOR/DME112.5015W
MHTr210/31.8MANCHESTER VOR/DME114.4015W
PVDr006/38.3PROVIDENCE VOR/DME115.6014W

Heliport Services

Runway Information

Helipad H1

Dimensions: 50 x 50 ft. / 15 x 15 m
Surface: asphalt
Latitude: 42-21.382667N
Longitude: 071-33.322167W
Elevation: 520.0 ft.
Traffic pattern: leftleft

Heliport Ownership and Management from official FAA records

Ownership: Privately-owned
Owner: MARLBOROUGH HOSPITAL
157 UNION STREET
MARLBOROUGH, MA 01752
Phone 508-481-5000
Manager: FACILITIES MANAGER
157 UNION STREET
MARLBOROUGH, MA 01752
Phone 508-481-5000
EXT 314.

Additional Remarks

FOR CD CTC BOSTON APCH AT 603-594-5551.

Instrument Procedures

There are no published instrument procedures at 3MA1.

Some nearby airports with instrument procedures:

6B6 - Minute Man Air Field (6 nm N)
KBED - Laurence G Hanscom Field Airport (14 nm NE)
KFIT - Fitchburg Municipal Airport (15 nm NW)
1B6 - Hopedale Industrial Park Airport (15 nm S)
KORH - Worcester Regional Airport (15 nm W)
KOWD - Norwood Memorial Airport (20 nm SE)
 
Loc | Ops | Rwys | IFR | FBO | Links
Com | Nav | Svcs | Stats | Notes
Area around 3MA1 (Marlborough Hospital Heliport)
 
Road maps at: MapQuest Bing Google
 
Aerial photo
No photo
 
Sectional chart

 
Airport distance calculator
Flying to Marlborough Hospital Heliport? Find the distance to fly.

From to 3MA1

Sunrise and sunset
Times for 17-Apr-2021
 Local
(UTC-4)
 Zulu
(UTC)
Morning civil twilight05:3409:34
Sunrise06:0310:03
Sunset19:2923:29
Evening civil twilight19:5823:58

Current date and time
Zulu (UTC)  17-Apr-2021 15:05:37
Local (UTC-4)  17-Apr-2021 11:05:37
 
METAR
KBED 
13nm NE 
171458Z 34006KT 6SM -RA BR BKN012 OVC020 04/02 A2972 RMK AO2 P0001 T00390017 $
KFIT 
14nm NW 
171452Z AUTO 36008KT 10SM FEW028 BKN055 OVC070 06/01 A2973 RMK AO2 RAE00 SLP070 P0000 60001 T00560011 51008
KORH 
15nm W 
171454Z 34008KT 10SM FEW016 SCT023 OVC038 04/00 A2971 RMK AO2 RAE02B43E53 SLP069 P0000 60000 T00390000 53010
KOWD 
20nm SE 
171453Z 34009KT 10SM -RA BKN018 BKN024 OVC035 04/01 A2973 RMK AO2 SLP068 P0001 60001 T00440006 53015
KMQE 
21nm SE 
171451Z AUTO 34010KT 02/01 A2969 RMK AO1 SLP070 P0001 60001 T00170006 51015
KBOS 
24nm E 
171454Z 33012KT 10SM -RA BKN012 OVC018 04/01 A2973 RMK AO2 SLP066 P0002 60003 T00440011 51013
KASH 
25nm N 
171456Z 35007KT 10SM -RA SCT021 BKN049 OVC060 04/04 A2974 RMK AO2 RAB02 SLP076 P0000 60001 T00440039 51008
TAF
KBED 
13nm NE 
171120Z 1712/1812 33009KT P6SM VCSH OVC015 FM171400 34009KT P6SM VCSH OVC010 FM171600 34009KT P6SM OVC015 FM172200 34005KT P6SM OVC030 FM180000 35004KT P6SM OVC035 FM180600 00000KT 3SM BR OVC045
KORH 
15nm W 
171120Z 1712/1812 33008KT P6SM OVC015 FM171600 33008KT P6SM OVC020 FM172000 33008KT P6SM OVC035 FM172300 33005KT P6SM BKN045 FM180500 30004KT 5SM BR BKN050
NOTAMs
Click for the latest NOTAMs
NOTAMs are issued by the DoD/FAA and will open in a separate window not controlled by AirNav.

 

 
 

Would you like to see your business listed on this page?

 If your business provides an interesting product or service to pilots, flight crews, aircraft, or users of the Marlborough Hospital Heliport, you should consider listing it here.  To start the listing process, click on the button below
 
Add a business
 

Other Pages about Marlborough Hospital Heliport

Update a link
 
Copyright © AirNav, LLC. All rights reserved. Privacy Policy  Contact